• Join FlightAware (Why Join?)
  • Login
  • US Flag 
06:27PM EST


 

Airport Tracker/Info


-or-


 

Live Flight TrackerFlight Track Log ✈ SWA1044 ✈ 21-Feb-2014 ✈ KLAX - KOAK

Flight Track Log - Related Links

Times and Time Zones

All times are in EST time to prevent confusion due to time zone crossing. See the SWA1044 flight status page for this flight to view local times or setup timezone preferences in your user account.

Time Position Orientation Groundspeed Altitude Reporting Facility
EST Latitude Longitude Course Direction KTS MPH feet Rate Location/Type
11:08PM 33.9461 -118.4494 266° West 169 194 1,500  Level Los Angeles Center
11:09PM 33.9408 -118.5328 266° West 244 281 4,800 3,480 Climbing Los Angeles Center
11:10PM 33.9342 -118.6244 265° West 272 313 8,800 2,040 Climbing Los Angeles Center
11:11PM 33.9889 -118.6875 316° Northwest 280 322 9,000 60 Climbing Los Angeles Center
11:12PM 34.0647 -118.6867 North 287 330 9,000 300 Level Los Angeles Center
11:13PM 34.1347 -118.6592 18° North 285 328 9,700 1,620 Climbing Los Angeles Center
11:14PM 34.2194 -118.6733 352° North 303 349 12,400 2,820 Climbing Los Angeles Center
11:15PM 34.3192 -118.6897 352° North 351 404 15,600 3,180 Climbing Los Angeles Center
11:16PM 34.4236 -118.7072 352° North 377 434 19,000 3,120 Climbing Los Angeles Center
11:17PM 34.5303 -118.7269 351° North 388 447 22,000 2,700 Climbing Los Angeles Center
11:18PM 34.6342 -118.7778 338° Northwest 402 463 24,700 2,700 Climbing Los Angeles Center
11:19PM 34.7592 -118.8417 337° Northwest 406 467 27,600 2,280 Climbing Los Angeles Center
11:20PM 34.8581 -118.9164 328° Northwest 420 483 29,400 1,920 Climbing Los Angeles Center
11:21PM 34.9467 -119.0025 321° Northwest 420 483 31,600 2,040 Climbing Los Angeles Center
11:22PM 35.0389 -119.0897 322° Northwest 421 484 33,700 1,800 Climbing Los Angeles Center
11:23PM 35.1292 -119.1797 321° Northwest 420 483 35,400 1,080 Climbing Los Angeles Center
11:24PM 35.2192 -119.2694 321° Northwest 420 483 36,000 240 Climbing Los Angeles Center
11:25PM 35.3286 -119.3764 321° Northwest 420 483 36,000  Level Los Angeles Center
11:26PM 35.4181 -119.4628 322° Northwest 415 478 36,000  Level Los Angeles Center
11:27PM 35.5053 -119.5511 321° Northwest 412 474 36,000  Level Los Angeles Center
11:28PM 35.5939 -119.6383 321° Northwest 410 472 36,000  Level Los Angeles Center
11:29PM 35.6831 -119.7289 320° Northwest 413 475 36,000  Level Los Angeles Center
11:30PM 35.7703 -119.8156 321° Northwest 406 467 36,000  Level Los Angeles Center
11:31PM 35.8392 -119.8847 321° Northwest 409 471 36,000  Level Oakland Center
11:32PM 35.9250 -119.9717 321° Northwest 405 466 36,000  Level Oakland Center
11:33PM 36.0125 -120.0597 321° Northwest 407 468 36,000  Level Oakland Center
11:34PM 36.0994 -120.1478 321° Northwest 406 467 36,000  Level Oakland Center
11:35PM 36.1869 -120.2356 321° Northwest 406 467 36,000 -900 Level Oakland Center
11:36PM 36.2725 -120.3253 320° Northwest 405 466 34,200 -2,280 Descending Oakland Center
11:37PM 36.3597 -120.4142 321° Northwest 406 467 31,400 -2,580 Descending Oakland Center
11:38PM 36.4428 -120.4992 321° Northwest 396 456 29,000 -1,920 Descending Oakland Center
11:39PM 36.5394 -120.5981 321° Northwest 380 437 27,600 -1,200 Descending Oakland Center
11:40PM 36.6203 -120.6831 320° Northwest 381 438 26,600 -1,020 Descending Oakland Center
11:41PM 36.6997 -120.7653 320° Northwest 375 432 25,600 -1,020 Descending Oakland Center
11:42PM 36.7756 -120.8475 319° Northwest 366 421 24,600 -1,200 Descending Oakland Center
11:43PM 36.8475 -120.9294 318° Northwest 360 414 23,200 -1,740 Descending Oakland Center
11:44PM 36.9167 -121.0108 317° Northwest 345 397 21,100 -2,040 Descending Oakland Center
11:45PM 36.9850 -121.0889 318° Northwest 333 383 19,100 -1,860 Descending Oakland Center
11:46PM 37.0483 -121.1614 318° Northwest 319 367 17,400 -2,040 Descending Oakland Center
11:47PM 37.1194 -121.2442 317° Northwest 343 395 15,000 -2,460 Descending Oakland Center
11:48PM 37.1894 -121.3247 317° Northwest 342 394 12,500 -2,220 Descending Oakland Center
11:49PM 37.2572 -121.4036 317° Northwest 333 383 10,500 -1,260 Descending Oakland Center
11:50PM 37.3208 -121.4781 317° Northwest 318 366 10,000 -1,140 Descending Oakland Center
11:51PM 37.3856 -121.5517 318° Northwest 280 322 8,300 -1,620 Descending Oakland Center
11:52PM 37.4167 -121.6000 309° West 267 307 7,300 -1,440 Descending Northern Cal TRACON
11:53PM 37.4667 -121.6667 313° West 263 303 6,000 -660 Descending Northern Cal TRACON
11:54PM 37.5000 -121.7500 297° West 265 305 6,000  Level Northern Cal TRACON
11:55PM 37.5333 -121.8333 297° West 267 307 6,000 -660 Level Northern Cal TRACON
11:56PM 37.5667 -121.9167 297° West 274 315 4,700 -900 Descending Northern Cal TRACON
11:57PM 37.5833 -122.0000 284° West 245 282 4,200 -900 Descending Northern Cal TRACON
11:58PM 37.6167 -122.0667 302° West 186 214 3,000 -1,020 Descending Northern Cal TRACON
11:59PM 37.6333 -122.1167 293° West 157 181 2,200 -840 Descending Northern Cal TRACON
12:00AM 37.6667 -122.1500 322° Northwest 142 163 1,400 -780 Descending Northern Cal TRACON
12:01AM 37.6833 -122.1833 302° West 129 148 700 -720 Descending Northern Cal TRACON
12:03AM 37.7167 -122.2167 270° West  Level FlightAware Approximate
12:10AM 37.7213 -122.2212 270° West  Level Estimated
12:11AM 37.7167 -122.2167 270° West  Level FlightAware Approximate